sensor_id;sensor_type;location;lat;lon;timestamp;noise_LAeq;noise_LA_min;noise_LA_max;noise_LA01;noise_LA95
69611;Laerm;56817;52.302;4.844;2023-01-23T00:00:12;36.92;33.99;39.27;;
69611;Laerm;56817;52.302;4.844;2023-01-23T00:00:22;40.73;36.24;47.64;;
69611;Laerm;56817;52.302;4.844;2023-01-23T00:00:33;43.72;37.28;50.46;;
69611;Laerm;56817;52.302;4.844;2023-01-23T00:00:45;38.10;35.57;40.03;;
69611;Laerm;56817;52.302;4.844;2023-01-23T00:00:56;37.28;35.28;39.43;;
69611;Laerm;56817;52.302;4.844;2023-01-23T00:01:10;38.72;36.27;42.42;;
69611;Laerm;56817;52.302;4.844;2023-01-23T00:01:22;39.60;37.25;42.45;;
69611;Laerm;56817;52.302;4.844;2023-01-23T00:01:34;38.22;36.32;40.40;;
69611;Laerm;56817;52.302;4.844;2023-01-23T00:01:45;38.13;36.18;40.43;;
69611;Laerm;56817;52.302;4.844;2023-01-23T00:01:56;37.85;35.31;40.21;;
69611;Laerm;56817;52.302;4.844;2023-01-23T00:02:06;38.81;36.01;41.22;;
69611;Laerm;56817;52.302;4.844;2023-01-23T00:02:16;38.94;36.67;40.75;;
69611;Laerm;56817;52.302;4.844;2023-01-23T00:02:27;38.12;35.92;39.80;;
69611;Laerm;56817;52.302;4.844;2023-01-23T00:02:37;38.33;36.00;40.75;;
69611;Laerm;56817;52.302;4.844;2023-01-23T00:02:47;39.80;36.68;42.33;;
69611;Laerm;56817;52.302;4.844;2023-01-23T00:02:57;38.33;36.19;40.18;;
69611;Laerm;56817;52.302;4.844;2023-01-23T00:03:08;37.77;35.64;44.58;;
69611;Laerm;56817;52.302;4.844;2023-01-23T00:03:18;37.10;34.61;39.63;;
69611;Laerm;56817;52.302;4.844;2023-01-23T00:03:28;36.03;34.41;38.76;;
69611;Laerm;56817;52.302;4.844;2023-01-23T00:03:39;37.51;35.42;41.46;;
69611;Laerm;56817;52.302;4.844;2023-01-23T00:03:49;36.15;34.20;38.51;;
69611;Laerm;56817;52.302;4.844;2023-01-23T00:03:59;35.80;33.69;38.09;;
69611;Laerm;56817;52.302;4.844;2023-01-23T00:04:11;36.36;33.93;38.73;;
69611;Laerm;56817;52.302;4.844;2023-01-23T00:04:21;36.51;34.10;39.12;;
69611;Laerm;56817;52.302;4.844;2023-01-23T00:04:32;36.17;33.89;40.46;;
69611;Laerm;56817;52.302;4.844;2023-01-23T00:04:42;36.29;34.01;38.42;;
69611;Laerm;56817;52.302;4.844;2023-01-23T00:04:53;35.46;33.44;37.33;;
69611;Laerm;56817;52.302;4.844;2023-01-23T00:05:03;35.55;33.53;37.62;;
69611;Laerm;56817;52.302;4.844;2023-01-23T00:05:13;35.23;33.68;37.07;;
69611;Laerm;56817;52.302;4.844;2023-01-23T00:05:23;35.68;33.25;37.97;;
69611;Laerm;56817;52.302;4.844;2023-01-23T00:05:34;36.44;34.71;38.30;;
69611;Laerm;56817;52.302;4.844;2023-01-23T00:05:44;37.48;35.09;39.61;;
69611;Laerm;56817;52.302;4.844;2023-01-23T00:05:55;36.88;34.87;39.06;;
69611;Laerm;56817;52.302;4.844;2023-01-23T00:06:07;36.42;34.26;39.29;;
69611;Laerm;56817;52.302;4.844;2023-01-23T00:06:18;38.05;36.12;39.98;;
69611;Laerm;56817;52.302;4.844;2023-01-23T00:06:28;39.40;36.99;44.99;;
69611;Laerm;56817;52.302;4.844;2023-01-23T00:06:38;38.67;36.22;41.68;;
69611;Laerm;56817;52.302;4.844;2023-01-23T00:06:49;37.63;35.69;39.30;;
69611;Laerm;56817;52.302;4.844;2023-01-23T00:07:00;37.07;34.89;39.96;;
69611;Laerm;56817;52.302;4.844;2023-01-23T00:07:12;37.94;35.79;41.01;;
69611;Laerm;56817;52.302;4.844;2023-01-23T00:07:22;38.55;35.77;41.35;;
69611;Laerm;56817;52.302;4.844;2023-01-23T00:07:33;39.31;36.27;42.53;;
69611;Laerm;56817;52.302;4.844;2023-01-23T00:07:43;37.84;35.74;39.85;;
69611;Laerm;56817;52.302;4.844;2023-01-23T00:07:53;39.43;36.52;42.20;;
69611;Laerm;56817;52.302;4.844;2023-01-23T00:08:03;39.90;37.17;43.34;;
69611;Laerm;56817;52.302;4.844;2023-01-23T00:08:14;42.19;37.16;47.60;;
69611;Laerm;56817;52.302;4.844;2023-01-23T00:08:24;37.95;35.91;39.88;;
69611;Laerm;56817;52.302;4.844;2023-01-23T00:08:35;38.72;35.92;42.87;;
69611;Laerm;56817;52.302;4.844;2023-01-23T00:08:45;38.97;36.23;41.99;;
69611;Laerm;56817;52.302;4.844;2023-01-23T00:08:56;41.47;37.34;45.69;;
69611;Laerm;56817;52.302;4.844;2023-01-23T00:09:06;38.70;36.46;42.22;;
69611;Laerm;56817;52.302;4.844;2023-01-23T00:09:17;39.65;36.62;43.20;;
69611;Laerm;56817;52.302;4.844;2023-01-23T00:09:27;38.44;36.45;41.19;;
69611;Laerm;56817;52.302;4.844;2023-01-23T00:09:37;39.03;36.47;41.51;;
69611;Laerm;56817;52.302;4.844;2023-01-23T00:09:48;39.21;35.66;41.62;;
69611;Laerm;56817;52.302;4.844;2023-01-23T00:09:58;39.13;35.26;41.96;;
69611;Laerm;56817;52.302;4.844;2023-01-23T00:10:09;37.01;34.86;42.39;;
69611;Laerm;56817;52.302;4.844;2023-01-23T00:10:19;37.49;35.24;39.70;;
69611;Laerm;56817;52.302;4.844;2023-01-23T00:10:29;37.41;35.57;39.84;;
69611;Laerm;56817;52.302;4.844;2023-01-23T00:10:40;39.06;36.30;42.20;;
69611;Laerm;56817;52.302;4.844;2023-01-23T00:10:50;37.45;35.20;39.26;;
69611;Laerm;56817;52.302;4.844;2023-01-23T00:11:07;40.69;37.48;45.16;;
69611;Laerm;56817;52.302;4.844;2023-01-23T00:11:19;36.34;34.06;41.80;;
69611;Laerm;56817;52.302;4.844;2023-01-23T00:11:29;36.65;34.64;38.59;;
69611;Laerm;56817;52.302;4.844;2023-01-23T00:11:40;36.77;34.20;38.68;;
69611;Laerm;56817;52.302;4.844;2023-01-23T00:11:51;38.98;36.11;43.17;;
69611;Laerm;56817;52.302;4.844;2023-01-23T00:12:01;36.61;34.06;38.44;;
69611;Laerm;56817;52.302;4.844;2023-01-23T00:12:11;36.12;33.90;38.02;;
69611;Laerm;56817;52.302;4.844;2023-01-23T00:12:21;35.26;32.75;37.83;;
69611;Laerm;56817;52.302;4.844;2023-01-23T00:12:32;35.38;33.36;37.88;;
69611;Laerm;56817;52.302;4.844;2023-01-23T00:12:43;35.03;32.11;37.18;;
69611;Laerm;56817;52.302;4.844;2023-01-23T00:12:53;35.39;33.25;37.54;;
69611;Laerm;56817;52.302;4.844;2023-01-23T00:13:03;36.23;33.99;39.68;;
69611;Laerm;56817;52.302;4.844;2023-01-23T00:13:14;36.39;34.44;38.53;;
69611;Laerm;56817;52.302;4.844;2023-01-23T00:13:26;36.28;34.68;37.86;;
69611;Laerm;56817;52.302;4.844;2023-01-23T00:13:36;36.47;34.57;38.21;;
69611;Laerm;56817;52.302;4.844;2023-01-23T00:13:47;37.38;34.89;39.74;;
69611;Laerm;56817;52.302;4.844;2023-01-23T00:13:58;36.60;34.47;39.60;;
69611;Laerm;56817;52.302;4.844;2023-01-23T00:14:08;36.43;33.94;39.83;;
69611;Laerm;56817;52.302;4.844;2023-01-23T00:14:19;36.73;34.18;41.00;;
69611;Laerm;56817;52.302;4.844;2023-01-23T00:14:29;36.10;33.94;37.71;;
69611;Laerm;56817;52.302;4.844;2023-01-23T00:14:40;39.58;36.06;43.29;;
69611;Laerm;56817;52.302;4.844;2023-01-23T00:14:50;38.83;34.54;42.23;;
69611;Laerm;56817;52.302;4.844;2023-01-23T00:15:00;35.78;34.03;37.50;;
69611;Laerm;56817;52.302;4.844;2023-01-23T00:15:11;35.62;33.71;39.16;;
69611;Laerm;56817;52.302;4.844;2023-01-23T00:15:21;35.63;33.61;37.60;;
69611;Laerm;56817;52.302;4.844;2023-01-23T00:15:32;35.56;33.90;37.51;;
69611;Laerm;56817;52.302;4.844;2023-01-23T00:15:42;36.49;33.74;39.75;;
69611;Laerm;56817;52.302;4.844;2023-01-23T00:15:52;38.58;35.40;46.66;;
69611;Laerm;56817;52.302;4.844;2023-01-23T00:16:06;39.47;36.21;49.11;;
69611;Laerm;56817;52.302;4.844;2023-01-23T00:16:18;38.77;36.38;42.09;;
69611;Laerm;56817;52.302;4.844;2023-01-23T00:16:30;37.31;34.89;40.07;;
69611;Laerm;56817;52.302;4.844;2023-01-23T00:16:40;37.87;35.18;42.85;;
69611;Laerm;56817;52.302;4.844;2023-01-23T00:16:51;40.44;36.00;48.07;;
69611;Laerm;56817;52.302;4.844;2023-01-23T00:17:01;39.58;35.71;45.05;;
69611;Laerm;56817;52.302;4.844;2023-01-23T00:17:11;38.30;35.38;41.29;;
69611;Laerm;56817;52.302;4.844;2023-01-23T00:17:23;38.00;35.86;39.93;;
69611;Laerm;56817;52.302;4.844;2023-01-23T00:17:35;37.13;35.13;39.30;;
69611;Laerm;56817;52.302;4.844;2023-01-23T00:17:46;37.19;35.05;39.92;;
69611;Laerm;56817;52.302;4.844;2023-01-23T00:17:57;38.11;35.81;40.05;;
69611;Laerm;56817;52.302;4.844;2023-01-23T00:18:07;37.74;35.62;40.04;;
69611;Laerm;56817;52.302;4.844;2023-01-23T00:18:18;38.43;35.94;41.86;;
69611;Laerm;56817;52.302;4.844;2023-01-23T00:18:28;39.37;34.65;43.93;;
69611;Laerm;56817;52.302;4.844;2023-01-23T00:18:38;36.08;33.62;38.45;;
69611;Laerm;56817;52.302;4.844;2023-01-23T00:18:49;35.74;33.82;37.98;;
69611;Laerm;56817;52.302;4.844;2023-01-23T00:19:00;35.33;33.38;37.50;;
69611;Laerm;56817;52.302;4.844;2023-01-23T00:19:10;36.22;34.02;39.17;;
69611;Laerm;56817;52.302;4.844;2023-01-23T00:19:20;36.56;34.07;38.63;;
69611;Laerm;56817;52.302;4.844;2023-01-23T00:19:31;36.24;34.12;39.24;;
69611;Laerm;56817;52.302;4.844;2023-01-23T00:19:41;36.54;34.57;38.13;;
69611;Laerm;56817;52.302;4.844;2023-01-23T00:19:54;36.84;34.64;39.91;;
69611;Laerm;56817;52.302;4.844;2023-01-23T00:20:05;37.10;34.66;39.88;;
69611;Laerm;56817;52.302;4.844;2023-01-23T00:20:15;36.22;34.23;38.18;;
69611;Laerm;56817;52.302;4.844;2023-01-23T00:20:26;36.76;34.67;38.94;;
69611;Laerm;56817;52.302;4.844;2023-01-23T00:20:36;36.31;34.68;37.96;;
69611;Laerm;56817;52.302;4.844;2023-01-23T00:20:46;36.94;34.99;38.87;;
69611;Laerm;56817;52.302;4.844;2023-01-23T00:20:57;36.50;34.71;38.28;;
69611;Laerm;56817;52.302;4.844;2023-01-23T00:21:08;35.67;33.66;37.40;;
69611;Laerm;56817;52.302;4.844;2023-01-23T00:21:19;36.24;34.11;38.29;;
69611;Laerm;56817;52.302;4.844;2023-01-23T00:21:30;36.39;34.49;38.14;;
69611;Laerm;56817;52.302;4.844;2023-01-23T00:21:40;38.33;35.42;41.45;;
69611;Laerm;56817;52.302;4.844;2023-01-23T00:21:51;39.26;34.39;43.89;;
69611;Laerm;56817;52.302;4.844;2023-01-23T00:22:01;36.89;34.60;39.38;;
69611;Laerm;56817;52.302;4.844;2023-01-23T00:22:11;37.34;34.98;39.73;;
69611;Laerm;56817;52.302;4.844;2023-01-23T00:22:24;36.57;34.21;38.25;;
69611;Laerm;56817;52.302;4.844;2023-01-23T00:22:34;36.98;34.74;39.48;;
69611;Laerm;56817;52.302;4.844;2023-01-23T00:22:44;37.22;35.17;39.45;;
69611;Laerm;56817;52.302;4.844;2023-01-23T00:22:55;37.47;35.19;39.69;;
69611;Laerm;56817;52.302;4.844;2023-01-23T00:23:05;37.46;34.86;39.48;;
69611;Laerm;56817;52.302;4.844;2023-01-23T00:23:16;36.94;34.51;39.69;;
69611;Laerm;56817;52.302;4.844;2023-01-23T00:23:26;37.01;34.42;39.99;;
69611;Laerm;56817;52.302;4.844;2023-01-23T00:23:36;37.38;35.51;39.75;;
69611;Laerm;56817;52.302;4.844;2023-01-23T00:23:48;37.40;35.24;39.46;;
69611;Laerm;56817;52.302;4.844;2023-01-23T00:23:58;40.97;35.59;44.82;;
69611;Laerm;56817;52.302;4.844;2023-01-23T00:24:11;37.73;35.17;43.21;;
69611;Laerm;56817;52.302;4.844;2023-01-23T00:24:21;38.52;35.86;45.91;;
69611;Laerm;56817;52.302;4.844;2023-01-23T00:24:31;39.98;36.40;43.89;;
69611;Laerm;56817;52.302;4.844;2023-01-23T00:24:42;38.91;35.45;42.44;;
69611;Laerm;56817;52.302;4.844;2023-01-23T00:24:52;37.22;34.83;39.77;;
69611;Laerm;56817;52.302;4.844;2023-01-23T00:25:02;36.27;34.08;38.43;;
69611;Laerm;56817;52.302;4.844;2023-01-23T00:25:13;37.33;34.73;40.29;;
69611;Laerm;56817;52.302;4.844;2023-01-23T00:25:23;36.63;34.86;38.42;;
69611;Laerm;56817;52.302;4.844;2023-01-23T00:25:34;36.23;34.33;38.17;;
69611;Laerm;56817;52.302;4.844;2023-01-23T00:25:44;36.54;34.76;38.02;;
69611;Laerm;56817;52.302;4.844;2023-01-23T00:25:55;36.05;33.37;38.59;;
69611;Laerm;56817;52.302;4.844;2023-01-23T00:26:06;35.45;33.58;37.42;;
69611;Laerm;56817;52.302;4.844;2023-01-23T00:26:17;36.46;34.20;41.13;;
69611;Laerm;56817;52.302;4.844;2023-01-23T00:26:29;37.17;34.65;46.65;;
69611;Laerm;56817;52.302;4.844;2023-01-23T00:26:41;36.52;33.54;45.92;;
69611;Laerm;56817;52.302;4.844;2023-01-23T00:26:52;35.90;33.75;44.19;;
69611;Laerm;56817;52.302;4.844;2023-01-23T00:27:02;35.91;33.46;38.54;;
69611;Laerm;56817;52.302;4.844;2023-01-23T00:27:12;35.62;33.46;37.60;;
69611;Laerm;56817;52.302;4.844;2023-01-23T00:27:23;36.39;33.83;38.43;;
69611;Laerm;56817;52.302;4.844;2023-01-23T00:27:33;37.21;35.47;39.09;;
69611;Laerm;56817;52.302;4.844;2023-01-23T00:27:43;37.27;34.97;39.99;;
69611;Laerm;56817;52.302;4.844;2023-01-23T00:27:54;37.56;34.86;39.73;;
69611;Laerm;56817;52.302;4.844;2023-01-23T00:28:04;37.68;34.93;39.99;;
69611;Laerm;56817;52.302;4.844;2023-01-23T00:28:14;37.64;34.87;40.00;;
69611;Laerm;56817;52.302;4.844;2023-01-23T00:28:25;37.20;34.49;40.39;;
69611;Laerm;56817;52.302;4.844;2023-01-23T00:28:35;36.87;34.00;39.50;;
69611;Laerm;56817;52.302;4.844;2023-01-23T00:28:46;36.11;33.88;38.67;;
69611;Laerm;56817;52.302;4.844;2023-01-23T00:28:56;36.29;34.00;38.73;;
69611;Laerm;56817;52.302;4.844;2023-01-23T00:29:07;36.52;34.46;38.13;;
69611;Laerm;56817;52.302;4.844;2023-01-23T00:29:17;36.63;34.28;38.89;;
69611;Laerm;56817;52.302;4.844;2023-01-23T00:29:27;35.47;33.09;38.12;;
69611;Laerm;56817;52.302;4.844;2023-01-23T00:29:38;35.42;32.98;37.58;;
69611;Laerm;56817;52.302;4.844;2023-01-23T00:29:50;35.15;33.27;37.03;;
69611;Laerm;56817;52.302;4.844;2023-01-23T00:30:01;35.79;32.90;37.75;;
69611;Laerm;56817;52.302;4.844;2023-01-23T00:30:11;38.33;35.25;42.68;;
69611;Laerm;56817;52.302;4.844;2023-01-23T00:30:22;35.98;33.47;38.89;;
69611;Laerm;56817;52.302;4.844;2023-01-23T00:30:33;35.95;33.67;38.16;;
69611;Laerm;56817;52.302;4.844;2023-01-23T00:30:43;37.10;35.25;39.46;;
69611;Laerm;56817;52.302;4.844;2023-01-23T00:30:53;37.15;34.59;39.03;;
69611;Laerm;56817;52.302;4.844;2023-01-23T00:31:12;37.79;35.69;40.81;;
69611;Laerm;56817;52.302;4.844;2023-01-23T00:31:30;38.58;36.19;40.82;;
69611;Laerm;56817;52.302;4.844;2023-01-23T00:31:41;38.45;35.96;41.06;;
69611;Laerm;56817;52.302;4.844;2023-01-23T00:31:51;38.43;35.97;41.52;;
69611;Laerm;56817;52.302;4.844;2023-01-23T00:32:01;38.17;35.94;40.77;;
69611;Laerm;56817;52.302;4.844;2023-01-23T00:32:12;38.27;36.08;40.57;;
69611;Laerm;56817;52.302;4.844;2023-01-23T00:32:22;38.19;35.62;40.89;;
69611;Laerm;56817;52.302;4.844;2023-01-23T00:32:32;37.64;35.01;40.56;;
69611;Laerm;56817;52.302;4.844;2023-01-23T00:32:42;38.12;36.02;40.81;;
69611;Laerm;56817;52.302;4.844;2023-01-23T00:32:53;36.89;34.69;39.38;;
69611;Laerm;56817;52.302;4.844;2023-01-23T00:33:03;37.25;35.38;39.11;;
69611;Laerm;56817;52.302;4.844;2023-01-23T00:33:13;36.29;34.57;38.36;;
69611;Laerm;56817;52.302;4.844;2023-01-23T00:33:24;36.59;33.95;38.85;;
69611;Laerm;56817;52.302;4.844;2023-01-23T00:33:34;35.72;33.47;37.97;;
69611;Laerm;56817;52.302;4.844;2023-01-23T00:33:44;36.17;34.47;38.40;;
69611;Laerm;56817;52.302;4.844;2023-01-23T00:33:56;36.61;34.77;38.27;;
69611;Laerm;56817;52.302;4.844;2023-01-23T00:34:09;37.23;35.30;39.26;;
69611;Laerm;56817;52.302;4.844;2023-01-23T00:34:19;37.78;35.26;40.35;;
69611;Laerm;56817;52.302;4.844;2023-01-23T00:34:30;37.85;35.67;39.98;;
69611;Laerm;56817;52.302;4.844;2023-01-23T00:34:40;37.73;35.74;40.25;;
69611;Laerm;56817;52.302;4.844;2023-01-23T00:34:51;37.27;35.43;39.58;;
69611;Laerm;56817;52.302;4.844;2023-01-23T00:35:01;36.60;34.26;38.53;;
69611;Laerm;56817;52.302;4.844;2023-01-23T00:35:11;36.85;35.04;38.75;;
69611;Laerm;56817;52.302;4.844;2023-01-23T00:35:21;39.12;36.29;41.67;;
69611;Laerm;56817;52.302;4.844;2023-01-23T00:35:33;39.24;36.57;42.28;;
69611;Laerm;56817;52.302;4.844;2023-01-23T00:35:43;37.70;34.77;39.74;;
69611;Laerm;56817;52.302;4.844;2023-01-23T00:35:54;37.48;35.39;40.34;;
69611;Laerm;56817;52.302;4.844;2023-01-23T00:36:04;37.47;35.20;39.74;;
69611;Laerm;56817;52.302;4.844;2023-01-23T00:36:15;38.01;35.88;40.14;;
69611;Laerm;56817;52.302;4.844;2023-01-23T00:36:29;36.99;35.43;38.93;;
69611;Laerm;56817;52.302;4.844;2023-01-23T00:36:41;36.65;34.66;38.49;;
69611;Laerm;56817;52.302;4.844;2023-01-23T00:36:51;37.25;35.13;39.64;;
69611;Laerm;56817;52.302;4.844;2023-01-23T00:37:02;39.53;36.40;42.30;;
69611;Laerm;56817;52.302;4.844;2023-01-23T00:37:12;42.27;37.96;48.42;;
69611;Laerm;56817;52.302;4.844;2023-01-23T00:37:23;45.14;37.95;53.39;;
69611;Laerm;56817;52.302;4.844;2023-01-23T00:37:33;42.63;37.34;50.53;;
69611;Laerm;56817;52.302;4.844;2023-01-23T00:37:43;39.69;36.60;43.11;;
69611;Laerm;56817;52.302;4.844;2023-01-23T00:37:53;38.85;36.18;42.35;;
69611;Laerm;56817;52.302;4.844;2023-01-23T00:38:04;38.06;35.61;41.10;;
69611;Laerm;56817;52.302;4.844;2023-01-23T00:38:14;36.16;34.37;38.26;;
69611;Laerm;56817;52.302;4.844;2023-01-23T00:38:24;35.96;34.11;38.27;;
69611;Laerm;56817;52.302;4.844;2023-01-23T00:38:35;35.86;33.31;38.38;;
69611;Laerm;56817;52.302;4.844;2023-01-23T00:38:45;36.21;33.44;38.23;;
69611;Laerm;56817;52.302;4.844;2023-01-23T00:38:55;37.14;34.88;39.28;;
69611;Laerm;56817;52.302;4.844;2023-01-23T00:39:07;35.96;34.04;38.99;;
69611;Laerm;56817;52.302;4.844;2023-01-23T00:39:19;35.99;34.09;38.17;;
69611;Laerm;56817;52.302;4.844;2023-01-23T00:39:29;38.10;35.34;40.46;;
69611;Laerm;56817;52.302;4.844;2023-01-23T00:39:40;38.58;35.49;41.29;;
69611;Laerm;56817;52.302;4.844;2023-01-23T00:39:50;38.01;34.71;40.22;;
69611;Laerm;56817;52.302;4.844;2023-01-23T00:40:00;38.45;36.30;40.46;;
69611;Laerm;56817;52.302;4.844;2023-01-23T00:40:11;38.41;36.19;40.14;;
69611;Laerm;56817;52.302;4.844;2023-01-23T00:40:22;38.76;35.96;41.03;;
69611;Laerm;56817;52.302;4.844;2023-01-23T00:40:32;38.19;36.47;39.90;;
69611;Laerm;56817;52.302;4.844;2023-01-23T00:40:42;38.19;36.22;40.34;;
69611;Laerm;56817;52.302;4.844;2023-01-23T00:40:53;38.41;35.90;42.56;;
69611;Laerm;56817;52.302;4.844;2023-01-23T00:41:05;37.89;35.13;40.26;;
69611;Laerm;56817;52.302;4.844;2023-01-23T00:41:15;38.43;36.38;40.96;;
69611;Laerm;56817;52.302;4.844;2023-01-23T00:41:25;38.09;35.61;40.83;;
69611;Laerm;56817;52.302;4.844;2023-01-23T00:41:36;38.31;34.79;41.28;;
69611;Laerm;56817;52.302;4.844;2023-01-23T00:41:46;38.42;36.16;43.56;;
69611;Laerm;56817;52.302;4.844;2023-01-23T00:41:57;37.67;34.90;39.45;;
69611;Laerm;56817;52.302;4.844;2023-01-23T00:42:07;37.64;35.07;39.90;;
69611;Laerm;56817;52.302;4.844;2023-01-23T00:42:18;36.68;34.00;39.28;;
69611;Laerm;56817;52.302;4.844;2023-01-23T00:42:28;36.46;34.02;38.62;;
69611;Laerm;56817;52.302;4.844;2023-01-23T00:42:39;36.69;34.28;38.62;;
69611;Laerm;56817;52.302;4.844;2023-01-23T00:42:49;36.19;33.56;38.24;;
69611;Laerm;56817;52.302;4.844;2023-01-23T00:42:59;36.85;34.70;39.36;;
69611;Laerm;56817;52.302;4.844;2023-01-23T00:43:10;37.06;34.28;39.54;;
69611;Laerm;56817;52.302;4.844;2023-01-23T00:43:20;38.34;35.69;41.50;;
69611;Laerm;56817;52.302;4.844;2023-01-23T00:43:31;37.48;35.41;39.70;;
69611;Laerm;56817;52.302;4.844;2023-01-23T00:43:41;37.38;35.13;39.53;;
69611;Laerm;56817;52.302;4.844;2023-01-23T00:43:51;37.57;35.28;39.39;;
69611;Laerm;56817;52.302;4.844;2023-01-23T00:44:02;36.82;34.67;39.01;;
69611;Laerm;56817;52.302;4.844;2023-01-23T00:44:12;37.21;34.95;39.87;;
69611;Laerm;56817;52.302;4.844;2023-01-23T00:44:23;37.00;34.49;39.44;;
69611;Laerm;56817;52.302;4.844;2023-01-23T00:44:33;36.34;34.39;38.52;;
69611;Laerm;56817;52.302;4.844;2023-01-23T00:44:43;37.51;35.46;39.81;;
69611;Laerm;56817;52.302;4.844;2023-01-23T00:44:54;37.94;35.80;39.65;;
69611;Laerm;56817;52.302;4.844;2023-01-23T00:45:04;37.81;35.62;40.48;;
69611;Laerm;56817;52.302;4.844;2023-01-23T00:45:15;37.72;34.71;39.48;;
69611;Laerm;56817;52.302;4.844;2023-01-23T00:45:25;36.75;34.66;38.59;;
69611;Laerm;56817;52.302;4.844;2023-01-23T00:45:35;41.00;36.12;46.84;;
69611;Laerm;56817;52.302;4.844;2023-01-23T00:45:47;37.27;35.33;39.62;;
69611;Laerm;56817;52.302;4.844;2023-01-23T00:45:57;35.99;33.57;38.50;;
69611;Laerm;56817;52.302;4.844;2023-01-23T00:46:08;35.05;33.16;37.22;;
69611;Laerm;56817;52.302;4.844;2023-01-23T00:46:19;35.00;33.00;37.05;;
69611;Laerm;56817;52.302;4.844;2023-01-23T00:46:29;35.50;33.60;38.13;;
69611;Laerm;56817;52.302;4.844;2023-01-23T00:46:39;35.51;33.06;38.02;;
69611;Laerm;56817;52.302;4.844;2023-01-23T00:46:50;35.63;33.00;37.56;;
69611;Laerm;56817;52.302;4.844;2023-01-23T00:47:00;36.13;34.40;38.10;;
69611;Laerm;56817;52.302;4.844;2023-01-23T00:47:10;35.57;33.73;37.55;;
69611;Laerm;56817;52.302;4.844;2023-01-23T00:47:21;35.52;33.20;38.96;;
69611;Laerm;56817;52.302;4.844;2023-01-23T00:47:31;36.16;33.75;39.06;;
69611;Laerm;56817;52.302;4.844;2023-01-23T00:47:41;37.06;34.14;39.88;;
69611;Laerm;56817;52.302;4.844;2023-01-23T00:47:51;37.26;34.12;40.29;;
69611;Laerm;56817;52.302;4.844;2023-01-23T00:48:02;35.93;33.82;38.52;;
69611;Laerm;56817;52.302;4.844;2023-01-23T00:48:12;36.27;33.65;38.79;;
69611;Laerm;56817;52.302;4.844;2023-01-23T00:48:22;36.43;34.36;39.69;;
69611;Laerm;56817;52.302;4.844;2023-01-23T00:48:33;36.49;34.75;39.59;;
69611;Laerm;56817;52.302;4.844;2023-01-23T00:48:43;36.15;34.05;39.93;;
69611;Laerm;56817;52.302;4.844;2023-01-23T00:48:53;37.10;34.40;40.61;;
69611;Laerm;56817;52.302;4.844;2023-01-23T00:49:04;40.36;35.86;45.34;;
69611;Laerm;56817;52.302;4.844;2023-01-23T00:49:14;39.01;35.36;42.91;;
69611;Laerm;56817;52.302;4.844;2023-01-23T00:49:26;38.40;35.37;41.76;;
69611;Laerm;56817;52.302;4.844;2023-01-23T00:49:37;36.72;34.28;40.07;;
69611;Laerm;56817;52.302;4.844;2023-01-23T00:49:47;35.98;34.16;38.19;;
69611;Laerm;56817;52.302;4.844;2023-01-23T00:49:57;37.27;34.59;41.99;;
69611;Laerm;56817;52.302;4.844;2023-01-23T00:50:08;36.93;35.08;38.84;;
69611;Laerm;56817;52.302;4.844;2023-01-23T00:50:18;36.36;34.22;38.11;;
69611;Laerm;56817;52.302;4.844;2023-01-23T00:50:29;36.66;34.57;38.88;;
69611;Laerm;56817;52.302;4.844;2023-01-23T00:50:39;36.69;34.63;39.07;;
69611;Laerm;56817;52.302;4.844;2023-01-23T00:50:49;36.74;34.08;39.79;;
69611;Laerm;56817;52.302;4.844;2023-01-23T00:51:00;37.01;34.31;39.86;;
69611;Laerm;56817;52.302;4.844;2023-01-23T00:51:10;36.68;34.77;38.51;;
69611;Laerm;56817;52.302;4.844;2023-01-23T00:51:21;37.15;34.38;39.51;;
69611;Laerm;56817;52.302;4.844;2023-01-23T00:51:31;35.46;33.59;37.50;;
69611;Laerm;56817;52.302;4.844;2023-01-23T00:51:42;34.86;32.95;37.22;;
69611;Laerm;56817;52.302;4.844;2023-01-23T00:51:52;34.73;33.09;36.85;;
69611;Laerm;56817;52.302;4.844;2023-01-23T00:52:05;35.10;32.72;37.55;;
69611;Laerm;56817;52.302;4.844;2023-01-23T00:52:15;36.44;34.08;39.29;;
69611;Laerm;56817;52.302;4.844;2023-01-23T00:52:25;36.41;34.40;38.25;;
69611;Laerm;56817;52.302;4.844;2023-01-23T00:52:36;35.90;33.53;37.52;;
69611;Laerm;56817;52.302;4.844;2023-01-23T00:52:46;36.40;34.37;38.32;;
69611;Laerm;56817;52.302;4.844;2023-01-23T00:52:57;38.77;35.95;41.83;;
69611;Laerm;56817;52.302;4.844;2023-01-23T00:53:07;37.69;34.44;40.32;;
69611;Laerm;56817;52.302;4.844;2023-01-23T00:53:17;37.31;35.36;40.12;;
69611;Laerm;56817;52.302;4.844;2023-01-23T00:53:28;37.46;35.15;42.25;;
69611;Laerm;56817;52.302;4.844;2023-01-23T00:53:38;36.69;34.62;38.85;;
69611;Laerm;56817;52.302;4.844;2023-01-23T00:53:48;36.82;34.62;38.98;;
69611;Laerm;56817;52.302;4.844;2023-01-23T00:53:59;37.73;35.66;39.43;;
69611;Laerm;56817;52.302;4.844;2023-01-23T00:54:10;37.18;35.22;38.99;;
69611;Laerm;56817;52.302;4.844;2023-01-23T00:54:20;36.47;34.38;38.19;;
69611;Laerm;56817;52.302;4.844;2023-01-23T00:54:31;37.29;34.75;39.79;;
69611;Laerm;56817;52.302;4.844;2023-01-23T00:54:41;36.09;33.94;39.39;;
69611;Laerm;56817;52.302;4.844;2023-01-23T00:54:52;36.74;35.13;39.74;;
69611;Laerm;56817;52.302;4.844;2023-01-23T00:55:03;37.87;35.76;41.40;;
69611;Laerm;56817;52.302;4.844;2023-01-23T00:55:13;37.52;35.15;39.98;;
69611;Laerm;56817;52.302;4.844;2023-01-23T00:55:23;36.26;34.47;38.79;;
69611;Laerm;56817;52.302;4.844;2023-01-23T00:55:33;36.58;34.51;47.94;;
69611;Laerm;56817;52.302;4.844;2023-01-23T00:55:44;36.66;34.38;39.66;;
69611;Laerm;56817;52.302;4.844;2023-01-23T00:55:54;36.68;34.29;38.84;;
69611;Laerm;56817;52.302;4.844;2023-01-23T00:56:04;37.21;34.62;41.47;;
69611;Laerm;56817;52.302;4.844;2023-01-23T00:56:15;35.86;33.88;39.29;;
69611;Laerm;56817;52.302;4.844;2023-01-23T00:56:25;35.74;33.83;37.88;;
69611;Laerm;56817;52.302;4.844;2023-01-23T00:56:35;35.47;33.42;37.49;;
69611;Laerm;56817;52.302;4.844;2023-01-23T00:56:46;35.86;33.84;38.38;;
69611;Laerm;56817;52.302;4.844;2023-01-23T00:56:56;36.51;34.54;38.93;;
69611;Laerm;56817;52.302;4.844;2023-01-23T00:57:06;36.73;34.51;38.64;;
69611;Laerm;56817;52.302;4.844;2023-01-23T00:57:17;36.21;33.76;38.40;;
69611;Laerm;56817;52.302;4.844;2023-01-23T00:57:27;36.05;33.70;38.00;;
69611;Laerm;56817;52.302;4.844;2023-01-23T00:57:37;36.09;33.92;38.57;;
69611;Laerm;56817;52.302;4.844;2023-01-23T00:57:48;36.41;34.17;38.86;;
69611;Laerm;56817;52.302;4.844;2023-01-23T00:57:58;35.91;33.83;38.26;;
69611;Laerm;56817;52.302;4.844;2023-01-23T00:58:08;35.98;33.62;38.17;;
69611;Laerm;56817;52.302;4.844;2023-01-23T00:58:19;35.87;33.06;38.22;;
69611;Laerm;56817;52.302;4.844;2023-01-23T00:58:29;36.28;33.93;38.40;;
69611;Laerm;56817;52.302;4.844;2023-01-23T00:58:39;36.63;34.33;38.20;;
69611;Laerm;56817;52.302;4.844;2023-01-23T00:58:50;36.93;34.40;38.91;;
69611;Laerm;56817;52.302;4.844;2023-01-23T00:59:01;37.57;35.41;39.82;;
69611;Laerm;56817;52.302;4.844;2023-01-23T00:59:11;37.30;35.21;39.23;;
69611;Laerm;56817;52.302;4.844;2023-01-23T00:59:22;36.65;34.13;38.75;;
69611;Laerm;56817;52.302;4.844;2023-01-23T00:59:32;37.14;34.68;39.50;;
69611;Laerm;56817;52.302;4.844;2023-01-23T00:59:42;37.22;35.27;39.29;;